sensor_id;sensor_type;location;lat;lon;timestamp;temperature;humidity
23629;DHT22;11991;57.150;-2.134;2023-04-15T00:01:57;8.10;99.90
23629;DHT22;11991;57.150;-2.134;2023-04-15T00:04:26;8.10;99.90
23629;DHT22;11991;57.150;-2.134;2023-04-15T00:06:54;8.10;99.90
23629;DHT22;11991;57.150;-2.134;2023-04-15T00:09:21;8.10;99.90
23629;DHT22;11991;57.150;-2.134;2023-04-15T00:11:49;8.10;99.90
23629;DHT22;11991;57.150;-2.134;2023-04-15T00:14:17;8.10;99.90
23629;DHT22;11991;57.150;-2.134;2023-04-15T00:16:44;8.10;99.90
23629;DHT22;11991;57.150;-2.134;2023-04-15T00:19:11;8.10;99.90
23629;DHT22;11991;57.150;-2.134;2023-04-15T00:21:39;8.10;99.90
23629;DHT22;11991;57.150;-2.134;2023-04-15T00:24:06;8.10;99.90
23629;DHT22;11991;57.150;-2.134;2023-04-15T00:26:33;8.10;99.90
23629;DHT22;11991;57.150;-2.134;2023-04-15T00:29:01;8.20;99.90
23629;DHT22;11991;57.150;-2.134;2023-04-15T00:31:29;8.20;99.90
23629;DHT22;11991;57.150;-2.134;2023-04-15T00:33:57;8.20;99.90
23629;DHT22;11991;57.150;-2.134;2023-04-15T00:36:25;8.30;99.90
23629;DHT22;11991;57.150;-2.134;2023-04-15T00:38:52;8.30;99.90
23629;DHT22;11991;57.150;-2.134;2023-04-15T00:41:19;8.30;99.90
23629;DHT22;11991;57.150;-2.134;2023-04-15T00:43:47;8.30;99.90
23629;DHT22;11991;57.150;-2.134;2023-04-15T00:46:15;8.30;99.90
23629;DHT22;11991;57.150;-2.134;2023-04-15T00:48:43;8.30;99.90
23629;DHT22;11991;57.150;-2.134;2023-04-15T00:51:12;8.30;99.90
23629;DHT22;11991;57.150;-2.134;2023-04-15T00:53:39;8.30;99.90
23629;DHT22;11991;57.150;-2.134;2023-04-15T00:56:07;8.30;99.90
23629;DHT22;11991;57.150;-2.134;2023-04-15T00:58:34;8.30;99.90
23629;DHT22;11991;57.150;-2.134;2023-04-15T01:01:03;8.30;99.90
23629;DHT22;11991;57.150;-2.134;2023-04-15T01:03:30;8.30;99.90
23629;DHT22;11991;57.150;-2.134;2023-04-15T01:05:58;8.30;99.90
23629;DHT22;11991;57.150;-2.134;2023-04-15T01:08:30;8.30;99.90
23629;DHT22;11991;57.150;-2.134;2023-04-15T01:11:00;8.30;99.90
23629;DHT22;11991;57.150;-2.134;2023-04-15T01:13:29;8.20;99.90
23629;DHT22;11991;57.150;-2.134;2023-04-15T01:15:57;8.20;99.90
23629;DHT22;11991;57.150;-2.134;2023-04-15T01:18:24;8.20;99.90
23629;DHT22;11991;57.150;-2.134;2023-04-15T01:20:52;8.20;99.90
23629;DHT22;11991;57.150;-2.134;2023-04-15T01:23:23;8.10;99.90
23629;DHT22;11991;57.150;-2.134;2023-04-15T01:25:50;8.10;99.90
23629;DHT22;11991;57.150;-2.134;2023-04-15T01:28:19;8.20;99.90
23629;DHT22;11991;57.150;-2.134;2023-04-15T01:30:46;8.20;99.90
23629;DHT22;11991;57.150;-2.134;2023-04-15T01:33:14;8.20;99.90
23629;DHT22;11991;57.150;-2.134;2023-04-15T01:35:41;8.20;99.90
23629;DHT22;11991;57.150;-2.134;2023-04-15T01:38:12;8.20;99.90
23629;DHT22;11991;57.150;-2.134;2023-04-15T01:40:39;8.20;99.90
23629;DHT22;11991;57.150;-2.134;2023-04-15T01:43:06;8.20;99.90
23629;DHT22;11991;57.150;-2.134;2023-04-15T01:45:34;8.20;99.90
23629;DHT22;11991;57.150;-2.134;2023-04-15T01:48:03;8.10;99.90
23629;DHT22;11991;57.150;-2.134;2023-04-15T01:50:30;8.10;99.90
23629;DHT22;11991;57.150;-2.134;2023-04-15T01:52:57;8.10;99.90
23629;DHT22;11991;57.150;-2.134;2023-04-15T01:55:24;8.10;99.90
23629;DHT22;11991;57.150;-2.134;2023-04-15T01:57:52;8.00;99.90
23629;DHT22;11991;57.150;-2.134;2023-04-15T02:00:20;8.00;99.90
23629;DHT22;11991;57.150;-2.134;2023-04-15T02:02:48;8.00;99.90
23629;DHT22;11991;57.150;-2.134;2023-04-15T02:05:15;8.00;99.90
23629;DHT22;11991;57.150;-2.134;2023-04-15T02:07:46;8.00;99.90
23629;DHT22;11991;57.150;-2.134;2023-04-15T02:10:14;8.00;99.90
23629;DHT22;11991;57.150;-2.134;2023-04-15T02:12:42;8.00;99.90
23629;DHT22;11991;57.150;-2.134;2023-04-15T02:15:10;8.00;99.90
23629;DHT22;11991;57.150;-2.134;2023-04-15T02:17:37;7.90;99.90
23629;DHT22;11991;57.150;-2.134;2023-04-15T02:20:07;8.00;99.90
23629;DHT22;11991;57.150;-2.134;2023-04-15T02:22:34;8.00;99.90
23629;DHT22;11991;57.150;-2.134;2023-04-15T02:25:02;8.00;99.90
23629;DHT22;11991;57.150;-2.134;2023-04-15T02:27:31;8.00;99.90
23629;DHT22;11991;57.150;-2.134;2023-04-15T02:29:58;8.00;99.90
23629;DHT22;11991;57.150;-2.134;2023-04-15T02:32:26;8.00;99.90
23629;DHT22;11991;57.150;-2.134;2023-04-15T02:34:54;8.00;99.90
23629;DHT22;11991;57.150;-2.134;2023-04-15T02:37:22;8.00;99.90
23629;DHT22;11991;57.150;-2.134;2023-04-15T02:39:50;8.00;99.90
23629;DHT22;11991;57.150;-2.134;2023-04-15T02:42:18;8.00;99.90
23629;DHT22;11991;57.150;-2.134;2023-04-15T02:44:48;8.00;99.90
23629;DHT22;11991;57.150;-2.134;2023-04-15T02:47:16;8.00;99.90
23629;DHT22;11991;57.150;-2.134;2023-04-15T02:49:44;8.00;99.90
23629;DHT22;11991;57.150;-2.134;2023-04-15T02:52:11;8.00;99.90
23629;DHT22;11991;57.150;-2.134;2023-04-15T02:54:39;7.90;99.90
23629;DHT22;11991;57.150;-2.134;2023-04-15T02:57:07;7.80;99.90
23629;DHT22;11991;57.150;-2.134;2023-04-15T02:59:34;7.70;99.90
23629;DHT22;11991;57.150;-2.134;2023-04-15T03:02:01;7.80;99.90
23629;DHT22;11991;57.150;-2.134;2023-04-15T03:04:28;7.70;99.90
23629;DHT22;11991;57.150;-2.134;2023-04-15T03:06:56;7.70;99.90
23629;DHT22;11991;57.150;-2.134;2023-04-15T03:09:25;7.60;99.90
23629;DHT22;11991;57.150;-2.134;2023-04-15T03:11:53;7.60;99.90
23629;DHT22;11991;57.150;-2.134;2023-04-15T03:14:21;7.70;99.90
23629;DHT22;11991;57.150;-2.134;2023-04-15T03:16:48;7.70;99.90
23629;DHT22;11991;57.150;-2.134;2023-04-15T03:19:17;7.70;99.90
23629;DHT22;11991;57.150;-2.134;2023-04-15T03:21:45;7.70;99.90
23629;DHT22;11991;57.150;-2.134;2023-04-15T03:24:12;7.70;99.90
23629;DHT22;11991;57.150;-2.134;2023-04-15T03:26:40;7.70;99.90
23629;DHT22;11991;57.150;-2.134;2023-04-15T03:29:11;7.60;99.90
23629;DHT22;11991;57.150;-2.134;2023-04-15T03:31:38;7.50;99.90
23629;DHT22;11991;57.150;-2.134;2023-04-15T03:34:06;7.40;99.90
23629;DHT22;11991;57.150;-2.134;2023-04-15T03:36:34;7.40;99.90
23629;DHT22;11991;57.150;-2.134;2023-04-15T03:39:01;7.30;99.90
23629;DHT22;11991;57.150;-2.134;2023-04-15T03:41:29;7.40;99.90
23629;DHT22;11991;57.150;-2.134;2023-04-15T03:43:56;7.40;99.90
23629;DHT22;11991;57.150;-2.134;2023-04-15T03:46:23;7.40;99.90
23629;DHT22;11991;57.150;-2.134;2023-04-15T03:48:51;7.40;99.90
23629;DHT22;11991;57.150;-2.134;2023-04-15T03:51:18;7.40;99.90
23629;DHT22;11991;57.150;-2.134;2023-04-15T03:53:45;7.50;99.90
23629;DHT22;11991;57.150;-2.134;2023-04-15T03:56:13;7.50;99.90
23629;DHT22;11991;57.150;-2.134;2023-04-15T03:58:40;7.40;99.90
23629;DHT22;11991;57.150;-2.134;2023-04-15T04:01:07;7.40;99.90
23629;DHT22;11991;57.150;-2.134;2023-04-15T04:03:34;7.40;99.90
23629;DHT22;11991;57.150;-2.134;2023-04-15T04:06:03;7.40;99.90
23629;DHT22;11991;57.150;-2.134;2023-04-15T04:08:30;7.40;99.90
23629;DHT22;11991;57.150;-2.134;2023-04-15T04:10:57;7.40;99.90
23629;DHT22;11991;57.150;-2.134;2023-04-15T04:13:25;7.40;99.90
23629;DHT22;11991;57.150;-2.134;2023-04-15T04:15:52;7.40;99.90
23629;DHT22;11991;57.150;-2.134;2023-04-15T04:18:19;7.40;99.90
23629;DHT22;11991;57.150;-2.134;2023-04-15T04:20:46;7.40;99.90
23629;DHT22;11991;57.150;-2.134;2023-04-15T04:23:14;7.50;99.90
23629;DHT22;11991;57.150;-2.134;2023-04-15T04:25:41;7.50;99.90
23629;DHT22;11991;57.150;-2.134;2023-04-15T04:28:09;7.50;99.90
23629;DHT22;11991;57.150;-2.134;2023-04-15T04:30:37;7.40;99.90
23629;DHT22;11991;57.150;-2.134;2023-04-15T04:33:05;7.40;99.90
23629;DHT22;11991;57.150;-2.134;2023-04-15T04:35:32;7.40;99.90
23629;DHT22;11991;57.150;-2.134;2023-04-15T04:38:00;7.30;99.90
23629;DHT22;11991;57.150;-2.134;2023-04-15T04:40:27;7.30;99.90
23629;DHT22;11991;57.150;-2.134;2023-04-15T04:42:55;7.30;99.90
23629;DHT22;11991;57.150;-2.134;2023-04-15T04:45:22;7.30;99.90
23629;DHT22;11991;57.150;-2.134;2023-04-15T04:47:49;7.30;99.90
23629;DHT22;11991;57.150;-2.134;2023-04-15T04:50:17;7.20;99.90
23629;DHT22;11991;57.150;-2.134;2023-04-15T04:52:44;7.00;99.90
23629;DHT22;11991;57.150;-2.134;2023-04-15T04:55:11;6.80;99.90
23629;DHT22;11991;57.150;-2.134;2023-04-15T04:57:39;6.70;99.90
23629;DHT22;11991;57.150;-2.134;2023-04-15T05:00:06;6.60;99.90
23629;DHT22;11991;57.150;-2.134;2023-04-15T05:02:35;6.60;99.90
23629;DHT22;11991;57.150;-2.134;2023-04-15T05:05:02;6.60;99.90
23629;DHT22;11991;57.150;-2.134;2023-04-15T05:07:30;6.60;99.90
23629;DHT22;11991;57.150;-2.134;2023-04-15T05:09:57;6.60;99.90
23629;DHT22;11991;57.150;-2.134;2023-04-15T05:12:24;6.50;99.90
23629;DHT22;11991;57.150;-2.134;2023-04-15T05:14:52;6.50;99.90
23629;DHT22;11991;57.150;-2.134;2023-04-15T05:17:19;6.50;99.90
23629;DHT22;11991;57.150;-2.134;2023-04-15T05:19:46;6.50;99.90
23629;DHT22;11991;57.150;-2.134;2023-04-15T05:22:14;6.60;99.90
23629;DHT22;11991;57.150;-2.134;2023-04-15T05:24:41;6.60;99.90
23629;DHT22;11991;57.150;-2.134;2023-04-15T05:27:08;6.60;99.90
23629;DHT22;11991;57.150;-2.134;2023-04-15T05:29:38;6.60;99.90
23629;DHT22;11991;57.150;-2.134;2023-04-15T05:32:05;6.60;99.90
23629;DHT22;11991;57.150;-2.134;2023-04-15T05:34:32;6.60;99.90
23629;DHT22;11991;57.150;-2.134;2023-04-15T05:37:00;6.50;99.90
23629;DHT22;11991;57.150;-2.134;2023-04-15T05:39:27;6.50;99.90
23629;DHT22;11991;57.150;-2.134;2023-04-15T05:41:54;6.50;99.90
23629;DHT22;11991;57.150;-2.134;2023-04-15T05:44:21;6.50;99.90
23629;DHT22;11991;57.150;-2.134;2023-04-15T05:46:48;6.40;99.90
23629;DHT22;11991;57.150;-2.134;2023-04-15T05:49:15;6.40;99.90
23629;DHT22;11991;57.150;-2.134;2023-04-15T05:51:43;6.30;99.90
23629;DHT22;11991;57.150;-2.134;2023-04-15T05:54:10;6.30;99.90
23629;DHT22;11991;57.150;-2.134;2023-04-15T05:56:37;6.30;99.90
23629;DHT22;11991;57.150;-2.134;2023-04-15T05:59:04;6.30;99.90
23629;DHT22;11991;57.150;-2.134;2023-04-15T06:01:32;6.30;99.90
23629;DHT22;11991;57.150;-2.134;2023-04-15T06:04:00;6.20;99.90
23629;DHT22;11991;57.150;-2.134;2023-04-15T06:06:27;6.00;99.90
23629;DHT22;11991;57.150;-2.134;2023-04-15T06:08:55;5.90;99.90
23629;DHT22;11991;57.150;-2.134;2023-04-15T06:11:22;5.70;99.90
23629;DHT22;11991;57.150;-2.134;2023-04-15T06:13:49;5.60;99.90
23629;DHT22;11991;57.150;-2.134;2023-04-15T06:16:17;5.60;99.90
23629;DHT22;11991;57.150;-2.134;2023-04-15T06:18:44;5.60;99.90
23629;DHT22;11991;57.150;-2.134;2023-04-15T06:21:11;5.70;99.90
23629;DHT22;11991;57.150;-2.134;2023-04-15T06:23:38;5.70;99.90
23629;DHT22;11991;57.150;-2.134;2023-04-15T06:26:07;5.80;99.90
23629;DHT22;11991;57.150;-2.134;2023-04-15T06:28:34;5.90;99.90
23629;DHT22;11991;57.150;-2.134;2023-04-15T06:31:02;5.90;99.90
23629;DHT22;11991;57.150;-2.134;2023-04-15T06:33:29;5.90;99.90
23629;DHT22;11991;57.150;-2.134;2023-04-15T06:35:57;6.00;99.90
23629;DHT22;11991;57.150;-2.134;2023-04-15T06:38:24;6.00;99.90
23629;DHT22;11991;57.150;-2.134;2023-04-15T06:40:52;6.10;99.90
23629;DHT22;11991;57.150;-2.134;2023-04-15T06:43:19;6.20;99.90
23629;DHT22;11991;57.150;-2.134;2023-04-15T06:45:46;6.20;99.90
23629;DHT22;11991;57.150;-2.134;2023-04-15T06:48:13;6.20;99.90
23629;DHT22;11991;57.150;-2.134;2023-04-15T06:50:41;6.30;99.90
23629;DHT22;11991;57.150;-2.134;2023-04-15T06:53:08;6.30;99.90
23629;DHT22;11991;57.150;-2.134;2023-04-15T06:55:35;6.30;99.90
23629;DHT22;11991;57.150;-2.134;2023-04-15T06:58:03;6.40;99.90
23629;DHT22;11991;57.150;-2.134;2023-04-15T07:00:30;6.40;99.90
23629;DHT22;11991;57.150;-2.134;2023-04-15T07:03:00;6.50;99.90
23629;DHT22;11991;57.150;-2.134;2023-04-15T07:05:30;6.60;99.90
23629;DHT22;11991;57.150;-2.134;2023-04-15T07:07:58;6.70;99.90
23629;DHT22;11991;57.150;-2.134;2023-04-15T07:10:26;6.80;99.90
23629;DHT22;11991;57.150;-2.134;2023-04-15T07:12:53;6.80;99.90
23629;DHT22;11991;57.150;-2.134;2023-04-15T07:15:20;6.80;99.90
23629;DHT22;11991;57.150;-2.134;2023-04-15T07:17:48;6.80;99.90
23629;DHT22;11991;57.150;-2.134;2023-04-15T07:20:15;6.90;99.90
23629;DHT22;11991;57.150;-2.134;2023-04-15T07:22:44;6.90;99.90
23629;DHT22;11991;57.150;-2.134;2023-04-15T07:25:11;6.90;99.90
23629;DHT22;11991;57.150;-2.134;2023-04-15T07:27:38;6.90;99.90
23629;DHT22;11991;57.150;-2.134;2023-04-15T07:30:06;7.00;99.90
23629;DHT22;11991;57.150;-2.134;2023-04-15T07:32:33;7.00;99.90
23629;DHT22;11991;57.150;-2.134;2023-04-15T07:35:00;7.10;99.90
23629;DHT22;11991;57.150;-2.134;2023-04-15T07:37:29;7.10;99.90
23629;DHT22;11991;57.150;-2.134;2023-04-15T07:39:57;7.20;99.90
23629;DHT22;11991;57.150;-2.134;2023-04-15T07:42:24;7.20;99.90
23629;DHT22;11991;57.150;-2.134;2023-04-15T07:44:51;7.10;99.90
23629;DHT22;11991;57.150;-2.134;2023-04-15T07:47:18;7.20;99.90
23629;DHT22;11991;57.150;-2.134;2023-04-15T07:49:46;7.20;99.90
23629;DHT22;11991;57.150;-2.134;2023-04-15T07:52:13;7.30;99.90
23629;DHT22;11991;57.150;-2.134;2023-04-15T07:54:40;7.30;99.90
23629;DHT22;11991;57.150;-2.134;2023-04-15T07:57:07;7.20;99.90
23629;DHT22;11991;57.150;-2.134;2023-04-15T07:59:35;7.20;99.90
23629;DHT22;11991;57.150;-2.134;2023-04-15T08:02:02;7.30;99.90
23629;DHT22;11991;57.150;-2.134;2023-04-15T08:04:30;7.30;99.90
23629;DHT22;11991;57.150;-2.134;2023-04-15T08:06:57;7.30;99.90
23629;DHT22;11991;57.150;-2.134;2023-04-15T08:09:24;7.40;99.90
23629;DHT22;11991;57.150;-2.134;2023-04-15T08:11:53;7.40;99.90
23629;DHT22;11991;57.150;-2.134;2023-04-15T08:14:20;7.50;99.90
23629;DHT22;11991;57.150;-2.134;2023-04-15T08:16:47;7.50;99.90
23629;DHT22;11991;57.150;-2.134;2023-04-15T08:19:15;7.70;99.90
23629;DHT22;11991;57.150;-2.134;2023-04-15T08:21:42;7.70;99.90
23629;DHT22;11991;57.150;-2.134;2023-04-15T08:24:09;7.80;99.90
23629;DHT22;11991;57.150;-2.134;2023-04-15T08:26:37;7.80;99.90
23629;DHT22;11991;57.150;-2.134;2023-04-15T08:29:04;7.90;99.90
23629;DHT22;11991;57.150;-2.134;2023-04-15T08:31:31;8.00;99.90
23629;DHT22;11991;57.150;-2.134;2023-04-15T08:33:59;8.00;99.90
23629;DHT22;11991;57.150;-2.134;2023-04-15T08:36:26;8.10;99.90
23629;DHT22;11991;57.150;-2.134;2023-04-15T08:38:54;8.20;99.90
23629;DHT22;11991;57.150;-2.134;2023-04-15T08:41:23;8.20;99.90
23629;DHT22;11991;57.150;-2.134;2023-04-15T08:43:53;8.30;99.90
23629;DHT22;11991;57.150;-2.134;2023-04-15T08:46:23;8.20;99.90
23629;DHT22;11991;57.150;-2.134;2023-04-15T08:48:50;8.30;99.90
23629;DHT22;11991;57.150;-2.134;2023-04-15T08:51:18;8.30;99.90
23629;DHT22;11991;57.150;-2.134;2023-04-15T08:53:46;8.30;99.90
23629;DHT22;11991;57.150;-2.134;2023-04-15T08:56:14;8.40;99.90
23629;DHT22;11991;57.150;-2.134;2023-04-15T08:58:43;8.40;99.90
23629;DHT22;11991;57.150;-2.134;2023-04-15T09:01:11;8.40;99.90
23629;DHT22;11991;57.150;-2.134;2023-04-15T09:03:39;8.50;99.90
23629;DHT22;11991;57.150;-2.134;2023-04-15T09:06:08;8.50;99.90
23629;DHT22;11991;57.150;-2.134;2023-04-15T09:08:35;8.60;99.90
23629;DHT22;11991;57.150;-2.134;2023-04-15T09:11:03;8.60;99.90
23629;DHT22;11991;57.150;-2.134;2023-04-15T09:13:30;8.60;99.90
23629;DHT22;11991;57.150;-2.134;2023-04-15T09:16:00;8.70;99.90
23629;DHT22;11991;57.150;-2.134;2023-04-15T09:18:33;8.70;99.90
23629;DHT22;11991;57.150;-2.134;2023-04-15T09:21:05;8.80;99.90
23629;DHT22;11991;57.150;-2.134;2023-04-15T09:23:35;8.80;99.90
23629;DHT22;11991;57.150;-2.134;2023-04-15T09:26:04;8.90;99.90
23629;DHT22;11991;57.150;-2.134;2023-04-15T09:28:31;8.90;99.90
23629;DHT22;11991;57.150;-2.134;2023-04-15T09:31:00;9.00;99.90
23629;DHT22;11991;57.150;-2.134;2023-04-15T09:33:28;9.10;99.90
23629;DHT22;11991;57.150;-2.134;2023-04-15T09:36:03;9.20;99.90
23629;DHT22;11991;57.150;-2.134;2023-04-15T09:38:31;9.30;99.90
23629;DHT22;11991;57.150;-2.134;2023-04-15T09:40:58;9.30;99.90
23629;DHT22;11991;57.150;-2.134;2023-04-15T09:43:39;9.40;99.90
23629;DHT22;11991;57.150;-2.134;2023-04-15T09:46:06;9.40;99.90
23629;DHT22;11991;57.150;-2.134;2023-04-15T09:48:34;9.50;99.90
23629;DHT22;11991;57.150;-2.134;2023-04-15T09:51:02;9.50;99.90
23629;DHT22;11991;57.150;-2.134;2023-04-15T09:53:33;9.50;99.90
23629;DHT22;11991;57.150;-2.134;2023-04-15T09:56:01;9.60;99.90
23629;DHT22;11991;57.150;-2.134;2023-04-15T09:58:31;9.60;99.90
23629;DHT22;11991;57.150;-2.134;2023-04-15T10:01:04;9.60;99.90
23629;DHT22;11991;57.150;-2.134;2023-04-15T10:03:35;9.60;99.90
23629;DHT22;11991;57.150;-2.134;2023-04-15T10:06:03;9.70;99.90
23629;DHT22;11991;57.150;-2.134;2023-04-15T10:08:34;9.70;99.90
23629;DHT22;11991;57.150;-2.134;2023-04-15T10:11:02;9.70;99.90
23629;DHT22;11991;57.150;-2.134;2023-04-15T10:13:30;9.70;99.90
23629;DHT22;11991;57.150;-2.134;2023-04-15T10:16:10;9.70;99.90
23629;DHT22;11991;57.150;-2.134;2023-04-15T10:18:42;9.80;99.90
23629;DHT22;11991;57.150;-2.134;2023-04-15T10:21:10;9.80;99.90
23629;DHT22;11991;57.150;-2.134;2023-04-15T10:23:40;9.80;99.90
23629;DHT22;11991;57.150;-2.134;2023-04-15T10:26:07;9.80;99.90
23629;DHT22;11991;57.150;-2.134;2023-04-15T10:28:36;9.80;99.90
23629;DHT22;11991;57.150;-2.134;2023-04-15T10:31:04;9.80;99.90
23629;DHT22;11991;57.150;-2.134;2023-04-15T10:33:32;9.90;99.90
23629;DHT22;11991;57.150;-2.134;2023-04-15T10:36:01;9.90;99.90
23629;DHT22;11991;57.150;-2.134;2023-04-15T10:38:43;9.90;99.90
23629;DHT22;11991;57.150;-2.134;2023-04-15T10:45:38;10.10;99.90
23629;DHT22;11991;57.150;-2.134;2023-04-15T10:48:08;10.20;99.90
23629;DHT22;11991;57.150;-2.134;2023-04-15T10:50:37;10.20;99.90
23629;DHT22;11991;57.150;-2.134;2023-04-15T10:53:05;10.30;99.90
23629;DHT22;11991;57.150;-2.134;2023-04-15T10:55:36;10.30;99.90
23629;DHT22;11991;57.150;-2.134;2023-04-15T10:58:03;10.30;99.90
23629;DHT22;11991;57.150;-2.134;2023-04-15T11:00:31;10.30;99.90
23629;DHT22;11991;57.150;-2.134;2023-04-15T11:03:06;10.30;99.90
23629;DHT22;11991;57.150;-2.134;2023-04-15T11:05:51;10.30;99.90
23629;DHT22;11991;57.150;-2.134;2023-04-15T11:08:19;10.30;99.90
23629;DHT22;11991;57.150;-2.134;2023-04-15T11:13:16;10.40;99.90
23629;DHT22;11991;57.150;-2.134;2023-04-15T11:15:45;10.40;99.90
23629;DHT22;11991;57.150;-2.134;2023-04-15T11:18:15;10.40;99.90
23629;DHT22;11991;57.150;-2.134;2023-04-15T11:20:47;10.50;99.90
23629;DHT22;11991;57.150;-2.134;2023-04-15T11:26:03;10.50;99.90
23629;DHT22;11991;57.150;-2.134;2023-04-15T11:28:33;10.60;99.90
23629;DHT22;11991;57.150;-2.134;2023-04-15T11:31:11;10.60;99.90
23629;DHT22;11991;57.150;-2.134;2023-04-15T11:33:59;10.70;99.90
23629;DHT22;11991;57.150;-2.134;2023-04-15T11:36:30;10.70;99.90
23629;DHT22;11991;57.150;-2.134;2023-04-15T11:38:58;10.70;99.90
23629;DHT22;11991;57.150;-2.134;2023-04-15T11:41:26;10.70;99.90
23629;DHT22;11991;57.150;-2.134;2023-04-15T11:43:53;10.80;99.90
23629;DHT22;11991;57.150;-2.134;2023-04-15T11:46:28;10.80;99.90
23629;DHT22;11991;57.150;-2.134;2023-04-15T11:48:56;10.80;99.90
23629;DHT22;11991;57.150;-2.134;2023-04-15T11:51:24;10.80;99.90
23629;DHT22;11991;57.150;-2.134;2023-04-15T11:53:51;10.80;99.90
23629;DHT22;11991;57.150;-2.134;2023-04-15T11:56:23;10.90;99.90
23629;DHT22;11991;57.150;-2.134;2023-04-15T11:58:53;10.90;99.90
23629;DHT22;11991;57.150;-2.134;2023-04-15T12:01:37;10.90;99.90
23629;DHT22;11991;57.150;-2.134;2023-04-15T12:04:11;10.90;99.90
23629;DHT22;11991;57.150;-2.134;2023-04-15T12:06:39;11.00;99.90
23629;DHT22;11991;57.150;-2.134;2023-04-15T12:09:13;10.90;99.90
23629;DHT22;11991;57.150;-2.134;2023-04-15T12:11:49;11.00;99.90
23629;DHT22;11991;57.150;-2.134;2023-04-15T12:14:30;11.00;99.90
23629;DHT22;11991;57.150;-2.134;2023-04-15T12:16:59;11.10;99.90
23629;DHT22;11991;57.150;-2.134;2023-04-15T12:19:29;11.10;99.90
23629;DHT22;11991;57.150;-2.134;2023-04-15T12:22:03;11.20;99.90
23629;DHT22;11991;57.150;-2.134;2023-04-15T12:24:32;11.20;99.90
23629;DHT22;11991;57.150;-2.134;2023-04-15T12:27:08;11.30;99.90
23629;DHT22;11991;57.150;-2.134;2023-04-15T12:29:37;11.30;99.90
23629;DHT22;11991;57.150;-2.134;2023-04-15T12:32:07;11.40;99.90
23629;DHT22;11991;57.150;-2.134;2023-04-15T12:34:38;11.40;99.90
23629;DHT22;11991;57.150;-2.134;2023-04-15T12:37:08;11.50;99.90
23629;DHT22;11991;57.150;-2.134;2023-04-15T12:39:40;11.70;99.90
23629;DHT22;11991;57.150;-2.134;2023-04-15T12:42:08;11.80;99.90
23629;DHT22;11991;57.150;-2.134;2023-04-15T12:44:37;11.80;99.90
23629;DHT22;11991;57.150;-2.134;2023-04-15T12:47:07;12.00;99.90
23629;DHT22;11991;57.150;-2.134;2023-04-15T12:49:35;12.00;99.90
23629;DHT22;11991;57.150;-2.134;2023-04-15T12:52:03;12.10;99.90
23629;DHT22;11991;57.150;-2.134;2023-04-15T12:54:31;12.10;99.90
23629;DHT22;11991;57.150;-2.134;2023-04-15T12:56:58;12.20;99.90
23629;DHT22;11991;57.150;-2.134;2023-04-15T12:59:27;12.30;99.90
23629;DHT22;11991;57.150;-2.134;2023-04-15T13:01:54;12.30;99.90
23629;DHT22;11991;57.150;-2.134;2023-04-15T13:04:22;12.40;99.90
23629;DHT22;11991;57.150;-2.134;2023-04-15T13:06:49;12.50;99.90
23629;DHT22;11991;57.150;-2.134;2023-04-15T13:09:17;12.60;99.90
23629;DHT22;11991;57.150;-2.134;2023-04-15T13:11:44;12.60;99.90
23629;DHT22;11991;57.150;-2.134;2023-04-15T13:14:12;12.70;99.90
23629;DHT22;11991;57.150;-2.134;2023-04-15T13:16:39;12.70;99.90
23629;DHT22;11991;57.150;-2.134;2023-04-15T13:19:07;12.70;99.90
23629;DHT22;11991;57.150;-2.134;2023-04-15T13:21:35;12.70;99.90
23629;DHT22;11991;57.150;-2.134;2023-04-15T13:24:03;12.80;99.90
23629;DHT22;11991;57.150;-2.134;2023-04-15T13:26:33;12.80;99.90
23629;DHT22;11991;57.150;-2.134;2023-04-15T13:29:00;12.80;99.90
23629;DHT22;11991;57.150;-2.134;2023-04-15T13:31:27;12.90;99.90
23629;DHT22;11991;57.150;-2.134;2023-04-15T13:33:56;12.90;99.90
23629;DHT22;11991;57.150;-2.134;2023-04-15T13:36:23;12.90;99.90
23629;DHT22;11991;57.150;-2.134;2023-04-15T13:38:52;13.00;99.90
23629;DHT22;11991;57.150;-2.134;2023-04-15T13:41:19;13.00;99.90
23629;DHT22;11991;57.150;-2.134;2023-04-15T13:43:47;13.10;99.90
23629;DHT22;11991;57.150;-2.134;2023-04-15T13:46:14;13.10;99.90
23629;DHT22;11991;57.150;-2.134;2023-04-15T13:48:42;13.20;99.90
23629;DHT22;11991;57.150;-2.134;2023-04-15T13:51:09;13.20;99.90
23629;DHT22;11991;57.150;-2.134;2023-04-15T13:53:37;13.20;99.90
23629;DHT22;11991;57.150;-2.134;2023-04-15T13:56:09;13.30;99.90
23629;DHT22;11991;57.150;-2.134;2023-04-15T13:58:37;13.30;99.90
23629;DHT22;11991;57.150;-2.134;2023-04-15T14:01:05;13.40;99.90
23629;DHT22;11991;57.150;-2.134;2023-04-15T14:03:34;13.40;99.90
23629;DHT22;11991;57.150;-2.134;2023-04-15T14:06:04;13.40;99.90
23629;DHT22;11991;57.150;-2.134;2023-04-15T14:08:31;13.40;99.90
23629;DHT22;11991;57.150;-2.134;2023-04-15T14:10:59;13.50;99.90
23629;DHT22;11991;57.150;-2.134;2023-04-15T14:13:27;13.50;99.90
23629;DHT22;11991;57.150;-2.134;2023-04-15T14:15:55;13.60;99.90
23629;DHT22;11991;57.150;-2.134;2023-04-15T14:18:22;13.70;99.90
23629;DHT22;11991;57.150;-2.134;2023-04-15T14:20:50;13.70;99.90
23629;DHT22;11991;57.150;-2.134;2023-04-15T14:23:17;13.80;99.90
23629;DHT22;11991;57.150;-2.134;2023-04-15T14:25:45;13.80;99.90
23629;DHT22;11991;57.150;-2.134;2023-04-15T14:28:14;13.80;99.90
23629;DHT22;11991;57.150;-2.134;2023-04-15T14:30:42;13.80;99.90
23629;DHT22;11991;57.150;-2.134;2023-04-15T14:33:09;13.80;99.90
23629;DHT22;11991;57.150;-2.134;2023-04-15T14:35:37;13.70;99.90
23629;DHT22;11991;57.150;-2.134;2023-04-15T14:38:05;13.70;99.90
23629;DHT22;11991;57.150;-2.134;2023-04-15T14:40:36;13.70;99.90
23629;DHT22;11991;57.150;-2.134;2023-04-15T14:43:03;13.70;99.90
23629;DHT22;11991;57.150;-2.134;2023-04-15T14:45:31;13.60;99.90
23629;DHT22;11991;57.150;-2.134;2023-04-15T14:47:58;13.60;99.90
23629;DHT22;11991;57.150;-2.134;2023-04-15T14:50:25;13.60;99.90
23629;DHT22;11991;57.150;-2.134;2023-04-15T14:52:52;13.60;99.90
23629;DHT22;11991;57.150;-2.134;2023-04-15T14:55:20;13.70;99.90
23629;DHT22;11991;57.150;-2.134;2023-04-15T14:57:47;13.70;99.90
23629;DHT22;11991;57.150;-2.134;2023-04-15T15:00:14;13.70;99.90
23629;DHT22;11991;57.150;-2.134;2023-04-15T15:02:42;13.70;99.90
23629;DHT22;11991;57.150;-2.134;2023-04-15T15:05:10;13.60;99.90
23629;DHT22;11991;57.150;-2.134;2023-04-15T15:07:38;13.70;99.90
23629;DHT22;11991;57.150;-2.134;2023-04-15T15:10:07;13.70;99.90
23629;DHT22;11991;57.150;-2.134;2023-04-15T15:12:34;13.70;99.90
23629;DHT22;11991;57.150;-2.134;2023-04-15T15:15:02;13.80;99.90
23629;DHT22;11991;57.150;-2.134;2023-04-15T15:17:41;13.90;99.90
23629;DHT22;11991;57.150;-2.134;2023-04-15T15:20:09;13.90;99.90
23629;DHT22;11991;57.150;-2.134;2023-04-15T15:22:36;13.90;99.90
23629;DHT22;11991;57.150;-2.134;2023-04-15T15:25:04;14.00;99.90
23629;DHT22;11991;57.150;-2.134;2023-04-15T15:27:31;14.00;99.90
23629;DHT22;11991;57.150;-2.134;2023-04-15T15:29:59;13.90;99.90
23629;DHT22;11991;57.150;-2.134;2023-04-15T15:32:26;14.00;99.90
23629;DHT22;11991;57.150;-2.134;2023-04-15T15:34:53;14.00;99.90
23629;DHT22;11991;57.150;-2.134;2023-04-15T15:37:21;14.00;99.90
23629;DHT22;11991;57.150;-2.134;2023-04-15T15:39:48;14.00;99.90
23629;DHT22;11991;57.150;-2.134;2023-04-15T15:42:18;14.00;99.90